sensor_id;sensor_type;location;lat;lon;timestamp;P1;durP1;ratioP1;P2;durP2;ratioP2
6713;SDS011;3394;51.246;6.792;2023-04-23T19:18:04;2.77;;;1.50;;
6713;SDS011;3394;51.246;6.792;2023-04-23T19:19:03;2.22;;;1.52;;
6713;SDS011;3394;51.246;6.792;2023-04-23T19:20:01;1.42;;;1.33;;
6713;SDS011;3394;51.246;6.792;2023-04-23T19:21:00;1.95;;;1.67;;
6713;SDS011;3394;51.246;6.792;2023-04-23T19:22:00;1.60;;;1.50;;
6713;SDS011;3394;51.246;6.792;2023-04-23T19:23:00;2.65;;;1.60;;
6713;SDS011;3394;51.246;6.792;2023-04-23T19:24:00;1.75;;;1.65;;
6713;SDS011;3394;51.246;6.792;2023-04-23T19:25:00;1.80;;;1.70;;
6713;SDS011;3394;51.246;6.792;2023-04-23T19:25:58;2.10;;;1.87;;
6713;SDS011;3394;51.246;6.792;2023-04-23T19:26:57;1.80;;;1.67;;
6713;SDS011;3394;51.246;6.792;2023-04-23T19:27:58;3.22;;;2.13;;
6713;SDS011;3394;51.246;6.792;2023-04-23T19:28:56;1.93;;;1.70;;
6713;SDS011;3394;51.246;6.792;2023-04-23T19:29:55;2.00;;;1.90;;
6713;SDS011;3394;51.246;6.792;2023-04-23T19:30:52;2.37;;;1.60;;
6713;SDS011;3394;51.246;6.792;2023-04-23T19:31:53;1.88;;;1.70;;
6713;SDS011;3394;51.246;6.792;2023-04-23T19:32:51;2.03;;;1.83;;
6713;SDS011;3394;51.246;6.792;2023-04-23T19:33:52;6.63;;;2.20;;
6713;SDS011;3394;51.246;6.792;2023-04-23T19:34:52;2.08;;;1.67;;
6713;SDS011;3394;51.246;6.792;2023-04-23T19:35:50;2.80;;;2.10;;
6713;SDS011;3394;51.246;6.792;2023-04-23T19:36:49;2.75;;;2.30;;
6713;SDS011;3394;51.246;6.792;2023-04-23T19:37:47;2.43;;;2.13;;
6713;SDS011;3394;51.246;6.792;2023-04-23T19:38:47;2.00;;;1.90;;
6713;SDS011;3394;51.246;6.792;2023-04-23T19:39:45;2.20;;;2.00;;
6713;SDS011;3394;51.246;6.792;2023-04-23T19:40:44;2.63;;;2.40;;
6713;SDS011;3394;51.246;6.792;2023-04-23T19:41:42;2.67;;;1.85;;
6713;SDS011;3394;51.246;6.792;2023-04-23T19:42:42;2.10;;;2.00;;
6713;SDS011;3394;51.246;6.792;2023-04-23T19:43:41;2.88;;;2.20;;
6713;SDS011;3394;51.246;6.792;2023-04-23T19:44:40;2.00;;;1.90;;
6713;SDS011;3394;51.246;6.792;2023-04-23T19:45:40;3.13;;;1.90;;
6713;SDS011;3394;51.246;6.792;2023-04-23T19:46:37;2.33;;;2.13;;
6713;SDS011;3394;51.246;6.792;2023-04-23T19:47:36;2.40;;;1.63;;
6713;SDS011;3394;51.246;6.792;2023-04-23T19:48:36;2.10;;;1.80;;
6713;SDS011;3394;51.246;6.792;2023-04-23T19:49:36;2.25;;;1.92;;
6713;SDS011;3394;51.246;6.792;2023-04-23T19:50:34;2.33;;;2.13;;
6713;SDS011;3394;51.246;6.792;2023-04-23T19:51:32;2.22;;;2.03;;
6713;SDS011;3394;51.246;6.792;2023-04-23T19:52:34;1.70;;;1.60;;
6713;SDS011;3394;51.246;6.792;2023-04-23T19:53:32;1.98;;;1.80;;
6713;SDS011;3394;51.246;6.792;2023-04-23T19:54:31;1.88;;;1.75;;
6713;SDS011;3394;51.246;6.792;2023-04-23T19:55:29;2.13;;;1.90;;
6713;SDS011;3394;51.246;6.792;2023-04-23T19:56:28;2.95;;;2.08;;
6713;SDS011;3394;51.246;6.792;2023-04-23T19:57:26;2.80;;;1.70;;
6713;SDS011;3394;51.246;6.792;2023-04-23T19:58:25;2.42;;;2.17;;
6713;SDS011;3394;51.246;6.792;2023-04-23T19:59:23;2.13;;;1.93;;
6713;SDS011;3394;51.246;6.792;2023-04-23T20:00:22;2.75;;;2.00;;
6713;SDS011;3394;51.246;6.792;2023-04-23T20:01:21;3.33;;;2.20;;
6713;SDS011;3394;51.246;6.792;2023-04-23T20:02:19;2.05;;;1.88;;
6713;SDS011;3394;51.246;6.792;2023-04-23T20:03:17;2.37;;;2.13;;
6713;SDS011;3394;51.246;6.792;2023-04-23T20:04:16;2.05;;;1.90;;
6713;SDS011;3394;51.246;6.792;2023-04-23T20:05:16;3.90;;;2.10;;
6713;SDS011;3394;51.246;6.792;2023-04-23T20:06:16;2.88;;;2.10;;
6713;SDS011;3394;51.246;6.792;2023-04-23T20:07:13;2.53;;;2.33;;
6713;SDS011;3394;51.246;6.792;2023-04-23T20:08:12;1.98;;;1.67;;
6713;SDS011;3394;51.246;6.792;2023-04-23T20:09:21;1.90;;;1.80;;
6713;SDS011;3394;51.246;6.792;2023-04-23T20:10:21;1.75;;;1.65;;
6713;SDS011;3394;51.246;6.792;2023-04-23T20:11:25;2.03;;;1.92;;
6713;SDS011;3394;51.246;6.792;2023-04-23T20:12:22;2.83;;;2.20;;
6713;SDS011;3394;51.246;6.792;2023-04-23T20:13:21;2.90;;;2.60;;
6713;SDS011;3394;51.246;6.792;2023-04-23T20:14:20;2.13;;;1.92;;
6713;SDS011;3394;51.246;6.792;2023-04-23T20:15:18;2.20;;;2.00;;
6713;SDS011;3394;51.246;6.792;2023-04-23T20:16:20;3.08;;;2.30;;
6713;SDS011;3394;51.246;6.792;2023-04-23T20:17:19;2.30;;;2.10;;
6713;SDS011;3394;51.246;6.792;2023-04-23T20:18:16;2.90;;;2.40;;
6713;SDS011;3394;51.246;6.792;2023-04-23T20:19:15;2.13;;;1.98;;
6713;SDS011;3394;51.246;6.792;2023-04-23T20:20:16;2.35;;;2.03;;
6713;SDS011;3394;51.246;6.792;2023-04-23T20:21:17;2.92;;;2.08;;
6713;SDS011;3394;51.246;6.792;2023-04-23T20:22:15;4.50;;;2.27;;
6713;SDS011;3394;51.246;6.792;2023-04-23T20:23:14;2.17;;;1.98;;
6713;SDS011;3394;51.246;6.792;2023-04-23T20:24:12;2.57;;;2.10;;
6713;SDS011;3394;51.246;6.792;2023-04-23T20:25:11;3.22;;;2.30;;
6713;SDS011;3394;51.246;6.792;2023-04-23T20:26:09;2.23;;;2.03;;
6713;SDS011;3394;51.246;6.792;2023-04-23T20:27:08;2.40;;;2.20;;
6713;SDS011;3394;51.246;6.792;2023-04-23T20:28:05;3.10;;;2.63;;
6713;SDS011;3394;51.246;6.792;2023-04-23T20:29:06;3.70;;;2.70;;
6713;SDS011;3394;51.246;6.792;2023-04-23T20:30:05;2.08;;;1.70;;
6713;SDS011;3394;51.246;6.792;2023-04-23T20:31:06;3.20;;;1.88;;
6713;SDS011;3394;51.246;6.792;2023-04-23T20:32:05;2.60;;;1.45;;
6713;SDS011;3394;51.246;6.792;2023-04-23T20:33:03;1.70;;;1.60;;
6713;SDS011;3394;51.246;6.792;2023-04-23T20:34:03;1.67;;;1.58;;
6713;SDS011;3394;51.246;6.792;2023-04-23T20:35:00;1.93;;;1.53;;
6713;SDS011;3394;51.246;6.792;2023-04-23T20:36:01;1.30;;;1.20;;
6713;SDS011;3394;51.246;6.792;2023-04-23T20:36:59;2.58;;;1.70;;
6713;SDS011;3394;51.246;6.792;2023-04-23T20:37:58;2.17;;;1.50;;
6713;SDS011;3394;51.246;6.792;2023-04-23T20:38:57;1.50;;;1.40;;
6713;SDS011;3394;51.246;6.792;2023-04-23T20:39:57;1.20;;;1.10;;
6713;SDS011;3394;51.246;6.792;2023-04-23T20:40:54;1.70;;;1.20;;
6713;SDS011;3394;51.246;6.792;2023-04-23T20:41:58;1.30;;;1.20;;
6713;SDS011;3394;51.246;6.792;2023-04-23T20:42:57;2.28;;;1.70;;
6713;SDS011;3394;51.246;6.792;2023-04-23T20:43:56;1.10;;;1.10;;
6713;SDS011;3394;51.246;6.792;2023-04-23T20:44:55;1.67;;;1.33;;
6713;SDS011;3394;51.246;6.792;2023-04-23T20:45:53;1.58;;;1.20;;
6713;SDS011;3394;51.246;6.792;2023-04-23T20:46:52;1.05;;;0.98;;
6713;SDS011;3394;51.246;6.792;2023-04-23T20:47:52;1.55;;;1.10;;
6713;SDS011;3394;51.246;6.792;2023-04-23T20:48:53;0.90;;;0.90;;
6713;SDS011;3394;51.246;6.792;2023-04-23T20:49:51;1.10;;;1.00;;
6713;SDS011;3394;51.246;6.792;2023-04-23T20:50:50;0.90;;;0.90;;
6713;SDS011;3394;51.246;6.792;2023-04-23T20:51:50;1.55;;;1.13;;
6713;SDS011;3394;51.246;6.792;2023-04-23T20:52:48;1.10;;;1.08;;
6713;SDS011;3394;51.246;6.792;2023-04-23T20:53:46;0.90;;;0.90;;
6713;SDS011;3394;51.246;6.792;2023-04-23T20:54:45;1.15;;;1.05;;
6713;SDS011;3394;51.246;6.792;2023-04-23T20:55:43;1.07;;;1.07;;
6713;SDS011;3394;51.246;6.792;2023-04-23T20:56:42;1.30;;;1.10;;
6713;SDS011;3394;51.246;6.792;2023-04-23T20:57:40;1.30;;;1.20;;
6713;SDS011;3394;51.246;6.792;2023-04-23T20:58:38;1.83;;;1.23;;
6713;SDS011;3394;51.246;6.792;2023-04-23T20:59:36;1.10;;;1.00;;
6713;SDS011;3394;51.246;6.792;2023-04-23T21:00:35;1.10;;;1.00;;
6713;SDS011;3394;51.246;6.792;2023-04-23T21:01:33;1.00;;;1.00;;
6713;SDS011;3394;51.246;6.792;2023-04-23T21:02:32;2.20;;;1.17;;
6713;SDS011;3394;51.246;6.792;2023-04-23T21:03:32;1.65;;;1.15;;
6713;SDS011;3394;51.246;6.792;2023-04-23T21:04:32;1.50;;;1.15;;
6713;SDS011;3394;51.246;6.792;2023-04-23T21:05:30;1.87;;;1.30;;
6713;SDS011;3394;51.246;6.792;2023-04-23T21:06:29;1.27;;;1.17;;
6713;SDS011;3394;51.246;6.792;2023-04-23T21:07:28;1.58;;;1.48;;
6713;SDS011;3394;51.246;6.792;2023-04-23T21:08:27;1.70;;;1.30;;
6713;SDS011;3394;51.246;6.792;2023-04-23T21:09:25;1.30;;;1.20;;
6713;SDS011;3394;51.246;6.792;2023-04-23T21:10:24;1.30;;;1.20;;
6713;SDS011;3394;51.246;6.792;2023-04-23T21:11:22;1.47;;;1.20;;
6713;SDS011;3394;51.246;6.792;2023-04-23T21:12:24;1.60;;;1.30;;
6713;SDS011;3394;51.246;6.792;2023-04-23T21:13:22;1.27;;;1.17;;
6713;SDS011;3394;51.246;6.792;2023-04-23T21:14:21;1.52;;;1.42;;
6713;SDS011;3394;51.246;6.792;2023-04-23T21:15:19;1.30;;;1.20;;
6713;SDS011;3394;51.246;6.792;2023-04-23T21:16:17;1.38;;;1.20;;
6713;SDS011;3394;51.246;6.792;2023-04-23T21:17:15;1.30;;;1.20;;
6713;SDS011;3394;51.246;6.792;2023-04-23T21:18:14;1.98;;;1.00;;
6713;SDS011;3394;51.246;6.792;2023-04-23T21:19:12;2.27;;;1.10;;
6713;SDS011;3394;51.246;6.792;2023-04-23T21:20:11;1.25;;;1.13;;
6713;SDS011;3394;51.246;6.792;2023-04-23T21:21:09;0.90;;;0.90;;
6713;SDS011;3394;51.246;6.792;2023-04-23T21:22:08;1.10;;;1.00;;
6713;SDS011;3394;51.246;6.792;2023-04-23T21:23:07;2.00;;;1.10;;
6713;SDS011;3394;51.246;6.792;2023-04-23T21:24:07;1.30;;;1.20;;
6713;SDS011;3394;51.246;6.792;2023-04-23T21:25:05;1.53;;;1.10;;
6713;SDS011;3394;51.246;6.792;2023-04-23T21:27:04;1.60;;;1.05;;
6713;SDS011;3394;51.246;6.792;2023-04-23T21:28:03;2.20;;;1.10;;
6713;SDS011;3394;51.246;6.792;2023-04-23T21:29:01;0.88;;;0.88;;
6713;SDS011;3394;51.246;6.792;2023-04-23T21:30:04;1.60;;;1.10;;
6713;SDS011;3394;51.246;6.792;2023-04-23T21:31:10;1.27;;;1.02;;
6713;SDS011;3394;51.246;6.792;2023-04-23T21:32:14;0.95;;;0.95;;
6713;SDS011;3394;51.246;6.792;2023-04-23T21:33:12;1.00;;;0.90;;
6713;SDS011;3394;51.246;6.792;2023-04-23T21:34:12;1.50;;;1.15;;
6713;SDS011;3394;51.246;6.792;2023-04-23T21:35:11;1.63;;;0.90;;
6713;SDS011;3394;51.246;6.792;2023-04-23T21:36:08;2.97;;;1.03;;
6713;SDS011;3394;51.246;6.792;2023-04-23T21:37:07;1.10;;;1.00;;
6713;SDS011;3394;51.246;6.792;2023-04-23T21:38:05;0.90;;;0.90;;
6713;SDS011;3394;51.246;6.792;2023-04-23T21:39:06;1.15;;;0.90;;
6713;SDS011;3394;51.246;6.792;2023-04-23T21:40:04;1.20;;;1.10;;
6713;SDS011;3394;51.246;6.792;2023-04-23T21:41:06;1.27;;;1.17;;
6713;SDS011;3394;51.246;6.792;2023-04-23T21:42:04;1.13;;;1.03;;
6713;SDS011;3394;51.246;6.792;2023-04-23T21:43:03;0.85;;;0.82;;
6713;SDS011;3394;51.246;6.792;2023-04-23T21:44:02;1.85;;;1.15;;
6713;SDS011;3394;51.246;6.792;2023-04-23T21:45:00;0.80;;;0.80;;
6713;SDS011;3394;51.246;6.792;2023-04-23T21:45:58;1.33;;;1.20;;
6713;SDS011;3394;51.246;6.792;2023-04-23T21:46:57;1.80;;;1.60;;
6713;SDS011;3394;51.246;6.792;2023-04-23T21:47:55;0.90;;;0.90;;
6713;SDS011;3394;51.246;6.792;2023-04-23T21:48:54;2.35;;;1.05;;
6713;SDS011;3394;51.246;6.792;2023-04-23T21:49:52;1.42;;;1.10;;
6713;SDS011;3394;51.246;6.792;2023-04-23T21:50:51;0.82;;;0.82;;
6713;SDS011;3394;51.246;6.792;2023-04-23T21:51:49;1.13;;;1.10;;
6713;SDS011;3394;51.246;6.792;2023-04-23T21:52:50;1.35;;;1.08;;
6713;SDS011;3394;51.246;6.792;2023-04-23T21:53:49;1.52;;;1.17;;
6713;SDS011;3394;51.246;6.792;2023-04-23T21:54:49;1.25;;;1.13;;
6713;SDS011;3394;51.246;6.792;2023-04-23T21:55:47;1.10;;;1.00;;
6713;SDS011;3394;51.246;6.792;2023-04-23T21:56:46;2.22;;;0.98;;
6713;SDS011;3394;51.246;6.792;2023-04-23T21:57:44;1.50;;;1.10;;
6713;SDS011;3394;51.246;6.792;2023-04-23T21:58:43;1.45;;;1.10;;
6713;SDS011;3394;51.246;6.792;2023-04-23T21:59:40;1.23;;;1.13;;
6713;SDS011;3394;51.246;6.792;2023-04-23T22:00:39;1.33;;;1.20;;
6713;SDS011;3394;51.246;6.792;2023-04-23T22:01:38;2.10;;;1.40;;
6713;SDS011;3394;51.246;6.792;2023-04-23T22:02:37;3.13;;;1.10;;
6713;SDS011;3394;51.246;6.792;2023-04-23T22:03:35;1.90;;;1.23;;
6713;SDS011;3394;51.246;6.792;2023-04-23T22:04:37;1.30;;;1.20;;
6713;SDS011;3394;51.246;6.792;2023-04-23T22:05:36;1.48;;;1.10;;
6713;SDS011;3394;51.246;6.792;2023-04-23T22:06:34;1.07;;;1.00;;
6713;SDS011;3394;51.246;6.792;2023-04-23T22:07:33;1.30;;;1.20;;
6713;SDS011;3394;51.246;6.792;2023-04-23T22:08:37;1.00;;;1.00;;
6713;SDS011;3394;51.246;6.792;2023-04-23T22:09:36;1.20;;;0.93;;
6713;SDS011;3394;51.246;6.792;2023-04-23T22:10:35;0.90;;;0.80;;
6713;SDS011;3394;51.246;6.792;2023-04-23T22:11:38;1.40;;;1.30;;
6713;SDS011;3394;51.246;6.792;2023-04-23T22:12:36;1.67;;;1.10;;
6713;SDS011;3394;51.246;6.792;2023-04-23T22:13:37;1.20;;;1.10;;
6713;SDS011;3394;51.246;6.792;2023-04-23T22:14:35;1.65;;;1.00;;
6713;SDS011;3394;51.246;6.792;2023-04-23T22:15:33;1.20;;;1.10;;
6713;SDS011;3394;51.246;6.792;2023-04-23T22:16:32;2.58;;;1.20;;
6713;SDS011;3394;51.246;6.792;2023-04-23T22:17:31;0.90;;;0.90;;
6713;SDS011;3394;51.246;6.792;2023-04-23T22:18:32;2.03;;;1.33;;
6713;SDS011;3394;51.246;6.792;2023-04-23T22:19:31;1.63;;;1.20;;
6713;SDS011;3394;51.246;6.792;2023-04-23T22:20:29;1.00;;;0.90;;
6713;SDS011;3394;51.246;6.792;2023-04-23T22:21:28;1.27;;;1.17;;
6713;SDS011;3394;51.246;6.792;2023-04-23T22:22:25;1.60;;;1.10;;
6713;SDS011;3394;51.246;6.792;2023-04-23T22:23:24;2.13;;;1.30;;
6713;SDS011;3394;51.246;6.792;2023-04-23T22:24:22;2.17;;;1.20;;
6713;SDS011;3394;51.246;6.792;2023-04-23T22:25:21;1.00;;;1.00;;
6713;SDS011;3394;51.246;6.792;2023-04-23T22:26:20;1.67;;;1.20;;
6713;SDS011;3394;51.246;6.792;2023-04-23T22:27:18;1.15;;;1.05;;
6713;SDS011;3394;51.246;6.792;2023-04-23T22:28:16;0.90;;;0.90;;
6713;SDS011;3394;51.246;6.792;2023-04-23T22:29:15;1.27;;;1.10;;
6713;SDS011;3394;51.246;6.792;2023-04-23T22:30:13;1.10;;;1.00;;
6713;SDS011;3394;51.246;6.792;2023-04-23T22:31:12;1.25;;;1.00;;
6713;SDS011;3394;51.246;6.792;2023-04-23T22:32:10;1.10;;;1.00;;
6713;SDS011;3394;51.246;6.792;2023-04-23T22:33:08;1.20;;;1.15;;
6713;SDS011;3394;51.246;6.792;2023-04-23T22:34:06;1.90;;;1.03;;
6713;SDS011;3394;51.246;6.792;2023-04-23T22:35:05;1.15;;;1.00;;
6713;SDS011;3394;51.246;6.792;2023-04-23T22:36:04;3.33;;;1.45;;
6713;SDS011;3394;51.246;6.792;2023-04-23T22:37:03;1.45;;;0.98;;
6713;SDS011;3394;51.246;6.792;2023-04-23T22:38:01;1.17;;;1.07;;
6713;SDS011;3394;51.246;6.792;2023-04-23T22:39:00;1.33;;;1.00;;
6713;SDS011;3394;51.246;6.792;2023-04-23T22:39:58;1.33;;;1.23;;
6713;SDS011;3394;51.246;6.792;2023-04-23T22:40:57;1.10;;;1.00;;
6713;SDS011;3394;51.246;6.792;2023-04-23T22:41:57;1.30;;;1.20;;
6713;SDS011;3394;51.246;6.792;2023-04-23T22:42:55;1.05;;;1.00;;
6713;SDS011;3394;51.246;6.792;2023-04-23T22:43:53;1.23;;;0.90;;
6713;SDS011;3394;51.246;6.792;2023-04-23T22:44:52;1.23;;;1.13;;
6713;SDS011;3394;51.246;6.792;2023-04-23T22:45:50;1.87;;;1.20;;
6713;SDS011;3394;51.246;6.792;2023-04-23T22:46:48;1.20;;;1.10;;
6713;SDS011;3394;51.246;6.792;2023-04-23T22:47:47;1.40;;;1.20;;
6713;SDS011;3394;51.246;6.792;2023-04-23T22:48:45;1.48;;;0.82;;
6713;SDS011;3394;51.246;6.792;2023-04-23T22:49:43;2.00;;;1.20;;
6713;SDS011;3394;51.246;6.792;2023-04-23T22:50:42;1.48;;;1.38;;
6713;SDS011;3394;51.246;6.792;2023-04-23T22:51:40;1.40;;;1.30;;
6713;SDS011;3394;51.246;6.792;2023-04-23T22:52:39;1.52;;;1.10;;
6713;SDS011;3394;51.246;6.792;2023-04-23T22:53:38;1.90;;;1.30;;
6713;SDS011;3394;51.246;6.792;2023-04-23T22:54:37;1.55;;;1.35;;
6713;SDS011;3394;51.246;6.792;2023-04-23T22:55:34;1.20;;;1.10;;
6713;SDS011;3394;51.246;6.792;2023-04-23T22:56:33;2.08;;;1.20;;
6713;SDS011;3394;51.246;6.792;2023-04-23T22:57:32;1.45;;;1.10;;
6713;SDS011;3394;51.246;6.792;2023-04-23T22:58:31;1.25;;;1.10;;
6713;SDS011;3394;51.246;6.792;2023-04-23T22:59:29;1.20;;;1.10;;
6713;SDS011;3394;51.246;6.792;2023-04-23T23:00:28;2.28;;;1.10;;
6713;SDS011;3394;51.246;6.792;2023-04-23T23:01:26;1.10;;;1.00;;
6713;SDS011;3394;51.246;6.792;2023-04-23T23:02:25;2.65;;;1.17;;
6713;SDS011;3394;51.246;6.792;2023-04-23T23:03:22;2.27;;;1.10;;
6713;SDS011;3394;51.246;6.792;2023-04-23T23:04:21;1.10;;;1.00;;
6713;SDS011;3394;51.246;6.792;2023-04-23T23:05:19;1.53;;;1.00;;
6713;SDS011;3394;51.246;6.792;2023-04-23T23:06:18;1.63;;;1.10;;
6713;SDS011;3394;51.246;6.792;2023-04-23T23:07:15;1.80;;;1.20;;
6713;SDS011;3394;51.246;6.792;2023-04-23T23:08:14;1.30;;;1.20;;
6713;SDS011;3394;51.246;6.792;2023-04-23T23:09:12;3.40;;;1.00;;
6713;SDS011;3394;51.246;6.792;2023-04-23T23:10:11;1.50;;;1.20;;
6713;SDS011;3394;51.246;6.792;2023-04-23T23:11:09;1.17;;;1.10;;
6713;SDS011;3394;51.246;6.792;2023-04-23T23:12:07;1.00;;;0.90;;
6713;SDS011;3394;51.246;6.792;2023-04-23T23:13:06;1.07;;;0.97;;
6713;SDS011;3394;51.246;6.792;2023-04-23T23:14:05;1.10;;;1.00;;
6713;SDS011;3394;51.246;6.792;2023-04-23T23:15:05;2.05;;;1.15;;
6713;SDS011;3394;51.246;6.792;2023-04-23T23:16:05;1.13;;;0.95;;
6713;SDS011;3394;51.246;6.792;2023-04-23T23:17:03;1.98;;;1.00;;
6713;SDS011;3394;51.246;6.792;2023-04-23T23:18:02;1.30;;;1.20;;
6713;SDS011;3394;51.246;6.792;2023-04-23T23:19:00;1.20;;;0.90;;
6713;SDS011;3394;51.246;6.792;2023-04-23T23:19:58;1.10;;;1.00;;
6713;SDS011;3394;51.246;6.792;2023-04-23T23:20:56;2.10;;;1.03;;
6713;SDS011;3394;51.246;6.792;2023-04-23T23:21:55;2.60;;;1.10;;
6713;SDS011;3394;51.246;6.792;2023-04-23T23:22:53;1.00;;;0.90;;
6713;SDS011;3394;51.246;6.792;2023-04-23T23:23:51;1.00;;;1.00;;
6713;SDS011;3394;51.246;6.792;2023-04-23T23:24:49;1.43;;;1.33;;
6713;SDS011;3394;51.246;6.792;2023-04-23T23:25:48;1.20;;;1.10;;
6713;SDS011;3394;51.246;6.792;2023-04-23T23:26:46;1.20;;;1.10;;
6713;SDS011;3394;51.246;6.792;2023-04-23T23:27:44;1.63;;;1.10;;
6713;SDS011;3394;51.246;6.792;2023-04-23T23:28:43;1.17;;;1.03;;
6713;SDS011;3394;51.246;6.792;2023-04-23T23:29:42;1.00;;;1.00;;
6713;SDS011;3394;51.246;6.792;2023-04-23T23:30:40;1.37;;;1.17;;
6713;SDS011;3394;51.246;6.792;2023-04-23T23:31:39;1.35;;;1.25;;
6713;SDS011;3394;51.246;6.792;2023-04-23T23:32:37;1.80;;;1.50;;
6713;SDS011;3394;51.246;6.792;2023-04-23T23:33:36;1.30;;;1.20;;
6713;SDS011;3394;51.246;6.792;2023-04-23T23:34:35;1.30;;;1.20;;
6713;SDS011;3394;51.246;6.792;2023-04-23T23:35:34;1.90;;;1.10;;
6713;SDS011;3394;51.246;6.792;2023-04-23T23:36:32;1.33;;;1.23;;
6713;SDS011;3394;51.246;6.792;2023-04-23T23:37:31;0.90;;;0.90;;
6713;SDS011;3394;51.246;6.792;2023-04-23T23:38:29;1.33;;;1.13;;
6713;SDS011;3394;51.246;6.792;2023-04-23T23:39:27;1.30;;;1.05;;
6713;SDS011;3394;51.246;6.792;2023-04-23T23:40:25;1.40;;;1.20;;
6713;SDS011;3394;51.246;6.792;2023-04-23T23:41:24;1.35;;;1.25;;
6713;SDS011;3394;51.246;6.792;2023-04-23T23:42:22;1.30;;;1.20;;
6713;SDS011;3394;51.246;6.792;2023-04-23T23:43:21;1.40;;;1.30;;
6713;SDS011;3394;51.246;6.792;2023-04-23T23:44:20;1.50;;;1.40;;
6713;SDS011;3394;51.246;6.792;2023-04-23T23:45:18;1.38;;;1.27;;
6713;SDS011;3394;51.246;6.792;2023-04-23T23:46:16;2.00;;;1.50;;
6713;SDS011;3394;51.246;6.792;2023-04-23T23:47:15;1.33;;;1.20;;
6713;SDS011;3394;51.246;6.792;2023-04-23T23:48:13;1.53;;;1.20;;
6713;SDS011;3394;51.246;6.792;2023-04-23T23:49:12;1.85;;;1.38;;
6713;SDS011;3394;51.246;6.792;2023-04-23T23:50:10;1.20;;;1.10;;
6713;SDS011;3394;51.246;6.792;2023-04-23T23:51:09;1.60;;;1.50;;
6713;SDS011;3394;51.246;6.792;2023-04-23T23:52:07;2.15;;;1.35;;
6713;SDS011;3394;51.246;6.792;2023-04-23T23:53:06;1.10;;;1.10;;
6713;SDS011;3394;51.246;6.792;2023-04-23T23:54:03;2.17;;;1.40;;
6713;SDS011;3394;51.246;6.792;2023-04-23T23:55:03;3.17;;;1.60;;
6713;SDS011;3394;51.246;6.792;2023-04-23T23:56:01;1.58;;;1.48;;
6713;SDS011;3394;51.246;6.792;2023-04-23T23:57:00;2.15;;;1.55;;
6713;SDS011;3394;51.246;6.792;2023-04-23T23:57:58;1.97;;;1.50;;
6713;SDS011;3394;51.246;6.792;2023-04-23T23:58:57;2.13;;;1.40;;
6713;SDS011;3394;51.246;6.792;2023-04-23T23:59:56;2.73;;;1.27;;
